Time;durP1;ratioP1;P1;durP2;ratioP2;P2;SDS_P1;SDS_P2;PMS_P1;PMS_P2;Temp;Humidity;BMP_temperature;BMP_pressure;BME280_temperature;BME280_humidity;BME280_pressure;Samples;Min_cycle;Max_cycle;Signal;HPM_P1;HPM_P2
2021/07/08 18:08:39;;;;;;;13.55;6.50;;;;;;;25.70;42.75;100439.56;5091096;28;20424;-77
2021/07/08 18:11:05;;;;;;;16.00;8.30;;;;;;;25.64;42.63;100434.94;5094841;28;20043;-79
2021/07/08 18:13:31;;;;;;;13.45;6.93;;;;;;;25.61;42.75;100436.19;5094409;28;20059;-78
2021/07/08 18:15:56;;;;;;;12.98;7.20;;;;;;;25.55;42.90;100434.25;5094411;28;20393;-78
2021/07/08 18:18:22;;;;;;;16.05;7.03;;;;;;;25.50;43.12;100434.84;5095313;28;20086;-79
2021/07/08 18:20:48;;;;;;;9.45;5.90;;;;;;;25.45;43.58;100441.91;5094439;28;20092;-78
2021/07/08 18:23:14;;;;;;;13.48;5.95;;;;;;;25.37;43.84;100445.59;5079591;28;20040;-77
2021/07/08 18:25:39;;;;;;;12.38;5.63;;;;;;;25.32;43.86;100439.88;5094253;28;20090;-76
2021/07/08 18:28:06;;;;;;;13.30;6.60;;;;;;;25.26;44.13;100441.53;5094201;28;20040;-73
2021/07/08 18:30:33;;;;;;;9.05;4.80;;;;;;;25.21;44.17;100449.41;5094467;28;20059;-75
2021/07/08 18:32:59;;;;;;;7.07;4.60;;;;;;;25.18;44.25;100452.50;5093898;28;20051;-78
2021/07/08 18:35:25;;;;;;;7.82;4.95;;;;;;;25.12;44.20;100439.75;5094457;28;20047;-77
2021/07/08 18:37:52;;;;;;;11.73;6.53;;;;;;;25.11;44.51;100451.59;5075775;28;20405;-74
2021/07/08 18:40:23;;;;;;;13.73;6.25;;;;;;;25.07;44.80;100456.56;5094108;28;20119;-75
2021/07/08 18:42:50;;;;;;;13.05;7.00;;;;;;;25.02;45.16;100454.47;5093649;28;20048;-78
2021/07/08 18:45:17;;;;;;;13.95;6.82;;;;;;;25.01;45.21;100455.47;5094384;28;20063;-76
2021/07/08 18:47:44;;;;;;;10.05;6.10;;;;;;;24.99;45.10;100460.25;5094335;28;20044;-79
2021/07/08 18:50:12;;;;;;;10.05;5.47;;;;;;;24.92;45.51;100470.16;5094010;28;20558;-77
2021/07/08 18:52:38;;;;;;;13.60;6.68;;;;;;;24.88;45.31;100466.16;5093797;28;20092;-78
2021/07/08 18:55:06;;;;;;;11.70;8.88;;;;;;;24.83;46.00;100465.91;5075714;28;20515;-76
2021/07/08 18:57:32;;;;;;;;;;;;;;;24.77;46.20;100464.81;5076140;28;20064;-77
2021/07/08 18:59:58;;;;;;;16.02;7.50;;;;;;;24.74;46.31;100473.31;5093701;28;20024;-77
2021/07/08 19:02:24;;;;;;;15.05;8.60;;;;;;;24.72;46.33;100464.56;5093753;28;20520;-78
2021/07/08 19:04:52;;;;;;;17.42;9.90;;;;;;;24.66;47.22;100471.59;5093383;28;20047;-76
2021/07/08 19:07:20;;;;;;;77.10;56.72;;;;;;;24.63;47.55;100476.50;5074268;28;20089;-75
2021/07/08 19:09:47;;;;;;;75.60;51.65;;;;;;;24.58;47.47;100477.06;5093149;28;20472;-77
2021/07/08 19:12:13;;;;;;;30.85;19.00;;;;;;;24.50;48.00;100472.63;5095063;28;20495;-76
2021/07/08 19:14:38;;;;;;;10.57;7.85;;;;;;;24.45;48.81;100476.91;5113783;28;20043;-76
2021/07/08 19:17:09;;;;;;;10.57;6.50;;;;;;;24.35;49.25;100488.03;5112992;28;20050;-75
2021/07/08 19:19:39;;;;;;;18.33;5.88;;;;;;;24.24;49.87;100483.94;5109385;28;20043;-75
2021/07/08 19:22:07;;;;;;;14.98;6.72;;;;;;;24.16;50.50;100495.72;5085917;28;20415;-73
2021/07/08 19:24:33;;;;;;;9.68;6.22;;;;;;;24.06;51.47;100498.69;5052215;28;20046;-77
2021/07/08 19:27:00;;;;;;;13.18;6.57;;;;;;;23.96;51.83;100492.72;5102195;28;20100;-75
2021/07/08 19:29:29;;;;;;;11.63;6.70;;;;;;;23.87;52.36;100493.81;5101752;28;20055;-73
2021/07/08 19:31:58;;;;;;;13.75;6.30;;;;;;;23.91;51.96;100495.09;5103274;28;20116;-74
2021/07/08 19:34:24;;;;;;;10.93;7.35;;;;;;;24.09;52.00;100493.91;5103550;28;20039;-76
2021/07/08 19:36:50;;;;;;;12.93;6.90;;;;;;;24.21;51.43;100495.97;5110555;28;20388;-74
2021/07/08 19:39:16;;;;;;;12.23;7.68;;;;;;;24.37;51.15;100494.94;5074144;28;20044;-76
2021/07/08 19:41:42;;;;;;;16.27;9.52;;;;;;;24.45;51.03;100498.53;5097660;28;20480;-73
2021/07/08 19:44:08;;;;;;;22.35;13.70;;;;;;;24.47;50.85;100494.63;5109032;28;20046;-76
2021/07/08 19:46:33;;;;;;;20.52;11.77;;;;;;;24.52;50.81;100494.06;5114049;28;20548;-76
2021/07/08 19:48:59;;;;;;;21.40;12.30;;;;;;;24.54;50.58;100500.94;5103843;28;20122;-74
2021/07/08 19:54:09;;;;;;;16.02;7.47;;;;;;;24.32;50.89;100497.34;5113071;28;20040;-77
2021/07/08 19:56:38;;;;;;;23.20;11.18;;;;;;;24.16;51.05;100502.97;5096625;28;20047;-77
2021/07/08 19:59:04;;;;;;;19.67;9.67;;;;;;;24.04;51.49;100498.03;5098356;28;20039;-80
2021/07/08 20:01:30;;;;;;;20.60;13.60;;;;;;;23.96;52.21;100500.81;5074357;28;20039;-75
2021/07/08 20:03:56;;;;;;;17.98;10.13;;;;;;;23.84;52.15;100497.72;5110850;28;20485;-76
2021/07/08 20:06:22;;;;;;;51.97;34.15;;;;;;;23.73;52.46;100492.78;5112458;28;20031;-74
2021/07/08 20:08:48;;;;;;;466.25;353.65;;;;;;;23.67;52.73;100497.03;5111984;28;20103;-75
2021/07/08 20:11:13;;;;;;;527.22;395.17;;;;;;;23.54;53.59;100499.53;5107781;28;20039;-79
2021/07/08 20:13:39;;;;;;;441.38;305.23;;;;;;;23.37;53.01;100499.69;5105559;28;20047;-76
2021/07/08 20:16:05;;;;;;;259.65;176.00;;;;;;;23.24;54.49;100499.44;5105629;28;20047;-77
2021/07/08 20:18:31;;;;;;;294.48;234.07;;;;;;;23.10;55.30;100496.50;5104392;28;20038;-78
2021/07/08 20:20:57;;;;;;;76.63;57.13;;;;;;;23.01;55.39;100504.84;5108559;28;20407;-78
2021/07/08 20:23:23;;;;;;;23.02;14.65;;;;;;;22.94;55.30;100500.16;5108192;28;20085;-79
2021/07/08 20:25:49;;;;;;;43.60;35.63;;;;;;;22.89;55.88;100499.00;5085371;28;20044;-76
2021/07/08 20:28:15;;;;;;;11.73;8.45;;;;;;;22.84;56.04;100493.31;5090443;28;20043;-76
2021/07/08 20:30:40;;;;;;;18.55;8.60;;;;;;;22.78;56.12;100498.41;5104384;28;20035;-78
2021/07/08 20:33:07;;;;;;;16.45;8.75;;;;;;;22.74;57.16;100499.78;5092727;28;20096;-79
2021/07/08 20:35:32;;;;;;;13.60;6.78;;;;;;;22.71;56.83;100504.69;5092770;28;20050;-76
2021/07/08 20:37:58;;;;;;;14.75;7.70;;;;;;;22.66;56.73;100501.69;5111082;28;20040;-79
2021/07/08 20:40:24;;;;;;;12.45;7.68;;;;;;;22.60;57.68;100501.41;5059973;28;20035;-78
2021/07/08 20:42:50;;;;;;;18.30;9.10;;;;;;;22.56;58.14;100508.13;5108687;28;20040;-78
2021/07/08 20:45:15;;;;;;;78.68;48.17;;;;;;;22.54;58.36;100499.41;5110363;28;20047;-78
2021/07/08 20:47:41;;;;;;;77.03;50.00;;;;;;;22.53;58.53;100504.94;5089876;28;20036;-82
2021/07/08 20:50:08;;;;;;;65.75;45.10;;;;;;;22.54;57.20;100510.19;5074000;28;20460;-81
2021/07/08 20:52:34;;;;;;;59.40;42.70;;;;;;;22.55;56.67;100505.63;5076868;28;20106;-77
2021/07/08 20:54:59;;;;;;;50.53;33.58;;;;;;;22.53;57.11;100507.66;5099505;28;20207;-79
2021/07/08 20:57:25;;;;;;;27.00;15.05;;;;;;;22.51;56.37;100504.31;5112429;28;20092;-78
2021/07/08 20:59:51;;;;;;;26.33;15.52;;;;;;;22.48;56.78;100505.50;5085115;28;20120;-77
2021/07/08 21:02:17;;;;;;;17.95;7.93;;;;;;;22.43;58.00;100514.09;5075587;28;20043;-76
2021/07/08 21:04:43;;;;;;;16.15;8.27;;;;;;;22.38;58.24;100511.09;5111962;28;20040;-76
2021/07/08 21:07:09;;;;;;;19.85;9.68;;;;;;;22.35;58.16;100514.09;5090313;28;20047;-76
2021/07/08 21:09:34;;;;;;;21.50;8.18;;;;;;;22.35;57.14;100513.28;5089817;28;20162;-76
2021/07/08 21:12:00;;;;;;;18.50;7.90;;;;;;;22.32;56.28;100516.31;5080109;28;20047;-78
2021/07/08 21:14:26;;;;;;;12.32;6.97;;;;;;;22.27;54.70;100506.06;5055482;28;20063;-79
2021/07/08 21:16:52;;;;;;;14.50;7.82;;;;;;;22.31;55.18;100515.47;5089588;28;20047;-82
2021/07/08 21:19:18;;;;;;;13.80;7.47;;;;;;;22.30;55.47;100519.19;5073625;28;20036;-78
2021/07/08 21:21:45;;;;;;;23.05;8.02;;;;;;;22.37;57.34;100520.19;5090152;28;20431;-78
2021/07/08 21:24:11;;;;;;;19.33;7.40;;;;;;;22.35;55.83;100522.19;5092032;28;20103;-81
2021/07/08 21:26:37;;;;;;;16.48;8.57;;;;;;;22.33;56.06;100521.53;5092411;28;20127;-78
2021/07/08 21:29:03;;;;;;;14.35;7.78;;;;;;;22.32;56.59;100522.53;5090551;28;20567;-78
2021/07/08 21:31:29;;;;;;;12.77;7.20;;;;;;;22.27;55.63;100514.97;5096154;28;20040;-78
2021/07/08 21:33:54;;;;;;;13.43;7.07;;;;;;;22.22;55.77;100513.81;5095256;28;20105;-77
2021/07/08 21:36:22;;;;;;;16.42;7.47;;;;;;;22.16;56.28;100514.50;5073091;28;20492;-77
2021/07/08 21:38:47;;;;;;;15.13;7.95;;;;;;;22.13;56.23;100518.38;5080689;28;20031;-78
2021/07/08 21:41:22;;;;;;;14.27;6.43;;;;;;;22.12;54.21;100517.56;5095282;28;20039;-77
2021/07/08 21:43:48;;;;;;;15.05;6.38;;;;;;;22.17;53.25;100513.50;5095368;28;20136;-78
2021/07/08 21:46:14;;;;;;;19.85;7.28;;;;;;;22.17;57.07;100521.56;5094488;28;20131;-75
2021/07/08 21:48:40;;;;;;;12.45;7.35;;;;;;;22.12;55.93;100522.13;5095747;28;20040;-78
2021/07/08 21:51:06;;;;;;;16.85;7.10;;;;;;;22.10;54.42;100516.88;5094687;28;20105;-75
2021/07/08 21:53:32;;;;;;;11.23;6.07;;;;;;;22.08;54.42;100513.53;5094956;28;20039;-75
2021/07/08 21:55:58;;;;;;;12.27;6.20;;;;;;;22.12;53.06;100517.56;5094145;28;20035;-76
2021/07/08 21:58:25;;;;;;;13.90;6.70;;;;;;;22.12;55.77;100517.56;5095208;28;20040;-78
2021/07/08 22:00:51;;;;;;;11.70;7.07;;;;;;;21.98;56.72;100516.44;5093319;28;20461;-76
2021/07/08 22:03:17;;;;;;;22.95;7.50;;;;;;;21.91;57.47;100517.28;5073244;28;20439;-77
2021/07/08 22:05:43;;;;;;;12.65;7.00;;;;;;;21.88;55.37;100517.63;5084017;28;20044;-74
2021/07/08 22:08:09;;;;;;;14.30;7.40;;;;;;;21.84;56.75;100524.38;5109210;28;20051;-75
2021/07/08 22:10:35;;;;;;;13.13;6.20;;;;;;;21.85;53.91;100520.66;5114136;28;20046;-73
2021/07/08 22:13:04;;;;;;;11.02;6.68;;;;;;;21.93;54.06;100529.56;5113925;28;20040;-74
2021/07/08 22:15:30;;;;;;;18.30;6.75;;;;;;;21.92;53.87;100525.19;5102027;28;20035;-75
2021/07/08 22:17:57;;;;;;;18.23;6.88;;;;;;;21.89;54.99;100532.78;5113617;28;20058;-75
2021/07/08 22:20:25;;;;;;;16.80;6.70;;;;;;;21.80;55.61;100540.84;5114240;28;20462;-75
2021/07/08 22:22:52;;;;;;;12.98;6.80;;;;;;;21.76;54.38;100539.53;5113673;28;20044;-75
2021/07/08 22:25:19;;;;;;;13.90;6.03;;;;;;;21.80;53.14;100546.25;5096352;28;20043;-73
2021/07/08 22:27:45;;;;;;;9.82;6.40;;;;;;;21.81;53.23;100547.09;5114605;28;20046;-77
2021/07/08 22:30:13;;;;;;;15.23;5.95;;;;;;;21.83;52.88;100544.22;5113338;28;20488;-75
2021/07/08 22:32:39;;;;;;;19.40;7.50;;;;;;;21.74;56.58;100546.91;5091952;28;20070;-74
2021/07/08 22:35:05;;;;;;;13.70;6.40;;;;;;;21.54;57.04;100554.47;5107425;28;20491;-77
2021/07/08 22:37:32;;;;;;;15.00;6.20;;;;;;;21.43;56.33;100539.53;5114760;28;20039;-75
2021/07/08 22:39:57;;;;;;;14.27;6.80;;;;;;;21.40;57.40;100547.91;5113307;28;20051;-73
2021/07/08 22:42:23;;;;;;;15.07;6.63;;;;;;;21.39;58.03;100542.72;5113940;28;20039;-75
2021/07/08 22:44:49;;;;;;;12.45;6.57;;;;;;;21.39;57.64;100554.31;5113017;28;20565;-76
2021/07/08 22:47:15;;;;;;;16.02;7.05;;;;;;;21.41;56.05;100557.69;5113626;28;20047;-74
2021/07/08 22:49:41;;;;;;;14.55;6.88;;;;;;;21.50;57.71;100543.19;5110660;28;20038;-77
2021/07/08 22:52:06;;;;;;;16.60;7.82;;;;;;;21.45;59.37;100542.88;5093582;28;20048;-75
2021/07/08 22:54:32;;;;;;;12.75;7.25;;;;;;;21.39;58.32;100543.53;5113031;28;20035;-75
2021/07/08 22:56:58;;;;;;;11.30;6.72;;;;;;;21.35;58.09;100542.22;5112342;28;20135;-75
2021/07/08 22:59:24;;;;;;;11.80;7.20;;;;;;;21.27;59.59;100540.34;5111665;28;20047;-76
2021/07/08 23:01:50;;;;;;;10.35;7.22;;;;;;;21.11;60.01;100551.06;5110885;28;20419;-74
2021/07/08 23:04:16;;;;;;;12.77;7.45;;;;;;;20.98;60.42;100547.00;5094044;28;20039;-76
2021/07/08 23:06:42;;;;;;;14.52;7.82;;;;;;;20.92;59.34;100549.53;5111742;28;20047;-74
2021/07/08 23:09:08;;;;;;;14.93;7.95;;;;;;;20.90;60.47;100548.84;5111912;28;20123;-74
2021/07/08 23:11:33;;;;;;;15.00;7.75;;;;;;;20.85;60.95;100558.25;5113828;28;20092;-74
2021/07/08 23:13:59;;;;;;;10.63;7.50;;;;;;;20.82;60.10;100555.91;5112275;28;20065;-75
2021/07/08 23:16:25;;;;;;;17.20;7.93;;;;;;;20.77;61.19;100557.41;5110649;28;20468;-75
2021/07/08 23:18:51;;;;;;;16.67;7.40;;;;;;;20.72;61.16;100560.56;5112582;28;20126;-75
2021/07/08 23:21:17;;;;;;;17.77;7.93;;;;;;;20.69;61.55;100558.19;5113988;28;20515;-75
2021/07/08 23:23:43;;;;;;;15.10;8.10;;;;;;;20.66;61.52;100556.66;5112397;28;20135;-77
2021/07/08 23:26:08;;;;;;;17.88;7.43;;;;;;;20.67;61.73;100560.19;5112106;28;20036;-77
2021/07/08 23:28:34;;;;;;;14.27;8.35;;;;;;;20.64;61.29;100563.22;5113564;28;20407;-75
2021/07/08 23:31:00;;;;;;;11.05;7.32;;;;;;;20.65;61.15;100559.53;5113132;28;20049;-76
2021/07/08 23:33:26;;;;;;;13.20;7.43;;;;;;;20.63;62.09;100561.53;5093125;28;20046;-74
2021/07/08 23:35:52;;;;;;;15.25;7.47;;;;;;;20.62;61.63;100562.53;5109814;28;20039;-73
2021/07/08 23:38:17;;;;;;;13.10;7.55;;;;;;;20.59;62.12;100568.25;5075077;28;20381;-74
2021/07/08 23:40:43;;;;;;;17.90;7.70;;;;;;;20.58;62.24;100561.16;5104871;28;20036;-74
